Terminal Aerodrome Forecast
Issued by NWS Tulsa, OK

Current Version | Previous Version | Text Only | Print | Product List | Glossary On
Versions: 1 2 3 4 5 6 7 8 9 10 11 12 13 14 15
876
FTUS44 KTSA 230520
TAFTUL
TAF
KTUL 230520Z 2306/2406 32009KT P6SM SKC
     FM230900 33004KT P6SM SKC
     FM231500 15005KT P6SM SCT250
     FM231800 14007KT P6SM SCT250=

USA.gov is the U.S. government's official web portal to all federal, state and local government web resources and services.